Time;durP1;ratioP1;P1;durP2;ratioP2;P2;SDS_P1;SDS_P2;PMS_P1;PMS_P2;Temp;Humidity;BMP_temperature;BMP_pressure;BME280_temperature;BME280_humidity;BME280_pressure;Samples;Min_cycle;Max_cycle;Signal;HPM_P1;HPM_P2
2022/09/26 00:02:19;;;;;;;;;;;;;;;23.64;nan;100627.50;5039340;28;954;-41
2022/09/26 00:04:46;;;;;;;;;;;;;;;23.65;nan;100617.69;5039185;28;1287;-40
2022/09/26 00:07:13;;;;;;;;;;;;;;;23.63;nan;100616.97;5039222;28;1030;-42
2022/09/26 00:09:39;;;;;;;;;;;;;;;23.61;nan;100609.13;5038575;28;833;-42
2022/09/26 00:12:06;;;;;;;;;;;;;;;23.61;nan;100608.25;5038762;28;1282;-42
2022/09/26 00:14:33;;;;;;;;;;;;;;;23.59;nan;100602.22;5039307;28;918;-42
2022/09/26 00:16:59;;;;;;;;;;;;;;;23.59;nan;100608.38;5039115;28;1982;-41
2022/09/26 00:19:26;;;;;;;;;;;;;;;23.58;nan;100606.69;5039047;28;757;-42
2022/09/26 00:21:53;;;;;;;;;;;;;;;23.58;nan;100608.50;5037798;28;1481;-42
2022/09/26 00:24:20;;;;;;;;;;;;;;;23.56;nan;100605.13;5044094;28;1553;-42
2022/09/26 00:26:47;;;;;;;;;;;;;;;23.54;nan;100597.28;5041186;28;1304;-42
2022/09/26 00:29:13;;;;;;;;;;;;;;;23.54;nan;100597.28;5050465;28;965;-43
2022/09/26 00:31:43;;;;;;;;;;;;;;;23.55;nan;100598.13;5045427;28;1256;-42
2022/09/26 00:34:11;;;;;;;;;;;;;;;23.53;nan;100590.25;5052749;28;957;-41
2022/09/26 00:36:38;;;;;;;;;;;;;;;23.54;nan;100591.94;5055615;28;1289;-42
2022/09/26 00:39:05;;;;;;;;;;;;;;;23.53;nan;100590.25;5049778;28;1915;-43
2022/09/26 00:41:32;;;;;;;;;;;;;;;23.51;nan;100596.66;5035625;28;1207;-42
2022/09/26 00:43:59;;;;;;;;;;;;;;;23.50;nan;100595.81;5067563;28;1647;-43
2022/09/26 00:46:40;;;;;;;;;;;;;;;23.48;nan;100592.44;5035340;28;1197;-41
2022/09/26 00:49:26;;;;;;;;;;;;;;;23.49;nan;100595.94;5035673;28;1495;-43
2022/09/26 00:51:58;;;;;;;;;;;;;;;23.49;nan;100594.13;5035325;28;1287;-43
2022/09/26 00:54:27;;;;;;;;;;;;;;;23.50;nan;100590.50;5035610;28;684;-43
2022/09/26 00:56:55;;;;;;;;;;;;;;;23.49;nan;100590.63;5035511;28;1208;-43
2022/09/26 00:59:24;;;;;;;;;;;;;;;23.48;nan;100587.13;5035585;28;1146;-43
2022/09/26 01:01:52;;;;;;;;;;;;;;;23.48;nan;100586.28;5035455;28;1316;-42
2022/09/26 01:04:20;;;;;;;;;;;;;;;23.48;nan;100591.59;5035231;28;738;-43
2022/09/26 01:06:48;;;;;;;;;;;;;;;23.48;nan;100580.94;5035279;28;1189;-43
2022/09/26 01:09:15;;;;;;;;;;;;;;;23.47;nan;100579.28;5034764;28;758;-42
2022/09/26 01:11:42;;;;;;;;;;;;;;;23.46;nan;100581.09;5034807;28;1292;-42
2022/09/26 01:14:10;;;;;;;;;;;;;;;23.47;nan;100576.63;5035046;28;1237;-43
2022/09/26 01:16:37;;;;;;;;;;;;;;;23.47;nan;100576.63;5035247;28;1218;-42
2022/09/26 01:19:16;;;;;;;;;;;;;;;23.45;nan;100566.09;5035136;28;1991;-42
2022/09/26 01:22:01;;;;;;;;;;;;;;;23.45;nan;100559.94;5035049;28;1346;-41
2022/09/26 01:24:34;;;;;;;;;;;;;;;23.46;nan;100556.31;5035238;28;1044;-42
2022/09/26 01:27:16;;;;;;;;;;;;;;;23.45;nan;100543.97;5035146;28;1209;-40
2022/09/26 01:30:01;;;;;;;;;;;;;;;23.45;nan;100555.47;5035104;28;750;-42
2022/09/26 01:32:47;;;;;;;;;;;;;;;23.43;nan;100549.44;5035077;28;1132;-42
2022/09/26 01:35:17;;;;;;;;;;;;;;;23.45;nan;100551.94;5034412;28;1287;-42
2022/09/26 01:37:46;;;;;;;;;;;;;;;23.43;nan;100536.13;5034678;28;1902;-41
2022/09/26 01:40:17;;;;;;;;;;;;;;;23.43;nan;100551.25;5034403;28;1268;-42
2022/09/26 01:43:14;;;;;;;;;;;;;;;23.43;nan;100551.25;5034551;28;1006;-42
2022/09/26 01:45:46;;;;;;;;;;;;;;;23.44;nan;100542.31;5025765;28;1319;-42
2022/09/26 01:48:18;;;;;;;;;;;;;;;23.43;nan;100551.25;5034734;28;1084;-42
2022/09/26 01:51:03;;;;;;;;;;;;;;;23.43;nan;100535.28;5034377;28;1358;-43
2022/09/26 01:53:33;;;;;;;;;;;;;;;23.42;nan;100536.25;5034725;28;1237;-42
2022/09/26 01:56:11;;;;;;;;;;;;;;;23.42;nan;100523.81;5034424;28;1224;-42
2022/09/26 01:58:41;;;;;;;;;;;;;;;23.42;nan;100528.28;5034615;28;1975;-42
2022/09/26 02:01:10;;;;;;;;;;;;;;;23.41;nan;100526.59;5034311;28;1274;-42
2022/09/26 02:03:41;;;;;;;;;;;;;;;23.40;nan;100523.09;5034407;28;1151;-42
2022/09/26 02:06:10;;;;;;;;;;;;;;;23.38;nan;100527.63;5034247;28;1247;-42
2022/09/26 02:08:39;;;;;;;;;;;;;;;23.39;nan;100524.91;5034321;28;1214;-41
2022/09/26 02:11:15;;;;;;;;;;;;;;;23.39;nan;100516.94;5033643;28;1310;-42
2022/09/26 02:13:56;;;;;;;;;;;;;;;23.39;nan;100514.28;5034096;28;1280;-42
2022/09/26 02:16:40;;;;;;;;;;;;;;;23.39;nan;100508.09;5033831;28;1387;-43
2022/09/26 02:19:15;;;;;;;;;;;;;;;23.37;nan;100505.56;5034017;28;1911;-42
2022/09/26 02:21:42;;;;;;;;;;;;;;;23.38;nan;100509.03;5034044;28;1207;-41
2022/09/26 02:24:09;;;;;;;;;;;;;;;23.37;nan;100500.25;5033552;28;1088;-42
2022/09/26 02:26:35;;;;;;;;;;;;;;;23.37;nan;100497.59;5033018;28;1343;-41
2022/09/26 02:29:03;;;;;;;;;;;;;;;23.37;nan;100494.94;5031481;28;706;-42
2022/09/26 02:31:32;;;;;;;;;;;;;;;23.38;nan;100485.97;5032096;28;1232;-40
2022/09/26 02:33:59;;;;;;;;;;;;;;;23.38;nan;100488.63;5033904;28;914;-42
2022/09/26 02:36:25;;;;;;;;;;;;;;;23.39;nan;100486.84;5033431;28;1279;-38
2022/09/26 02:38:52;;;;;;;;;;;;;;;23.41;nan;100494.72;5033454;28;1969;-38
2022/09/26 02:41:38;;;;;;;;;;;;;;;23.41;nan;100494.72;5033438;28;1201;-42
2022/09/26 02:44:11;;;;;;;;;;;;;;;23.43;nan;100487.44;5033408;28;733;-41
2022/09/26 02:46:58;;;;;;;;;;;;;;;23.42;nan;100480.44;5032929;28;1356;-42
2022/09/26 02:49:31;;;;;;;;;;;;;;;23.39;nan;100484.19;5033552;28;756;-43
2022/09/26 02:52:01;;;;;;;;;;;;;;;23.39;nan;100487.69;5033592;28;1238;-42
2022/09/26 02:54:48;;;;;;;;;;;;;;;23.39;nan;100482.38;5033330;28;778;-43
2022/09/26 02:57:24;;;;;;;;;;;;;;;23.39;nan;100490.34;5026387;28;1305;-42
2022/09/26 02:59:58;;;;;;;;;;;;;;;23.41;nan;100489.41;5033095;28;1914;-41
2022/09/26 03:02:37;;;;;;;;;;;;;;;23.39;nan;100494.81;5033769;28;1026;-40
2022/09/26 03:05:16;;;;;;;;;;;;;;;23.39;nan;100490.34;5033525;28;1273;-40
2022/09/26 03:07:49;;;;;;;;;;;;;;;23.37;nan;100494.94;5033535;28;935;-40
2022/09/26 03:10:16;;;;;;;;;;;;;;;23.36;nan;100495.88;5033532;28;1221;-40
2022/09/26 03:12:43;;;;;;;;;;;;;;;23.36;nan;100481.75;5033129;28;956;-39
2022/09/26 03:15:11;;;;;;;;;;;;;;;23.37;nan;100483.44;5032998;28;1276;-40
2022/09/26 03:17:41;;;;;;;;;;;;;;;23.36;nan;100481.75;5033466;28;1914;-40
2022/09/26 03:20:13;;;;;;;;;;;;;;;23.36;nan;100477.28;5030974;28;1157;-40
2022/09/26 03:22:43;;;;;;;;;;;;;;;23.35;nan;100483.53;5033081;28;896;-40
2022/09/26 03:25:13;;;;;;;;;;;;;;;23.35;nan;100478.22;5032964;28;1209;-40
2022/09/26 03:27:42;;;;;;;;;;;;;;;23.33;nan;100472.22;5033350;28;1123;-41
2022/09/26 03:30:10;;;;;;;;;;;;;;;23.35;nan;100472.06;5032928;28;1237;-42
2022/09/26 03:32:37;;;;;;;;;;;;;;;23.34;nan;100468.59;5032992;28;1597;-41
2022/09/26 03:35:04;;;;;;;;;;;;;;;23.33;nan;100456.25;5033126;28;1276;-41
2022/09/26 03:37:33;;;;;;;;;;;;;;;23.34;nan;100468.59;5031576;28;1120;-40
2022/09/26 03:40:03;;;;;;;;;;;;;;;23.31;nan;100458.22;5032959;28;1906;-40
2022/09/26 03:42:33;;;;;;;;;;;;;;;23.33;nan;100458.06;5033161;28;1024;-40
2022/09/26 03:45:01;;;;;;;;;;;;;;;23.32;nan;100465.19;5033138;28;1250;-41
2022/09/26 03:47:28;;;;;;;;;;;;;;;23.32;nan;100465.19;5033222;28;1050;-42
2022/09/26 03:49:55;;;;;;;;;;;;;;;23.31;nan;100458.22;5032852;28;1387;-41
2022/09/26 03:52:21;;;;;;;;;;;;;;;23.30;nan;100464.47;5033157;28;962;-42
2022/09/26 03:54:48;;;;;;;;;;;;;;;23.29;nan;100460.13;5033379;28;1228;-41
2022/09/26 03:57:15;;;;;;;;;;;;;;;23.29;nan;100454.81;5034559;28;1016;-39
2022/09/26 03:59:42;;;;;;;;;;;;;;;23.28;nan;100453.13;5036422;28;1910;-42
2022/09/26 04:02:09;;;;;;;;;;;;;;;23.29;nan;100454.81;5036552;28;1097;-41
2022/09/26 04:04:35;;;;;;;;;;;;;;;23.29;nan;100448.63;5036849;28;898;-40
2022/09/26 04:07:02;;;;;;;;;;;;;;;23.29;nan;100451.28;5036610;28;1322;-41
2022/09/26 04:09:29;;;;;;;;;;;;;;;23.29;nan;100449.50;5036178;28;1281;-42
2022/09/26 04:11:56;;;;;;;;;;;;;;;23.30;nan;100445.88;5036110;28;1320;-41
2022/09/26 04:14:23;;;;;;;;;;;;;;;23.30;nan;100447.69;5036449;28;928;-39
2022/09/26 04:16:50;;;;;;;;;;;;;;;23.30;nan;100453.84;5036302;28;1232;-39
2022/09/26 04:19:18;;;;;;;;;;;;;;;23.30;nan;100451.19;5036559;28;1910;-41
2022/09/26 04:21:44;;;;;;;;;;;;;;;23.30;nan;100453.84;5036131;28;1192;-41
2022/09/26 04:24:13;;;;;;;;;;;;;;;23.29;nan;100454.81;5036442;28;855;-41
2022/09/26 04:26:40;;;;;;;;;;;;;;;23.29;nan;100451.28;5036398;28;1293;-40
2022/09/26 04:29:07;;;;;;;;;;;;;;;23.28;nan;100447.81;5036137;28;1224;-40
2022/09/26 04:31:35;;;;;;;;;;;;;;;23.29;nan;100443.31;5036184;28;1213;-40
2022/09/26 04:34:03;;;;;;;;;;;;;;;23.29;nan;100449.50;5035885;28;742;-42
2022/09/26 04:36:31;;;;;;;;;;;;;;;23.29;nan;100449.50;5035740;28;1208;-42
2022/09/26 04:38:59;;;;;;;;;;;;;;;23.29;nan;100448.63;5035956;28;1966;-42
2022/09/26 04:41:27;;;;;;;;;;;;;;;23.28;nan;100453.13;5035923;28;1201;-42
2022/09/26 04:43:54;;;;;;;;;;;;;;;23.27;nan;100456.75;5036151;28;910;-42
2022/09/26 04:46:22;;;;;;;;;;;;;;;23.28;nan;100454.94;5035993;28;1358;-42
2022/09/26 04:48:54;;;;;;;;;;;;;;;23.27;nan;100456.75;5035934;28;763;-41
2022/09/26 04:51:22;;;;;;;;;;;;;;;23.28;nan;100454.94;5035671;28;1730;-42
2022/09/26 04:53:49;;;;;;;;;;;;;;;23.27;nan;100462.06;5035569;28;1331;-42
2022/09/26 04:56:18;;;;;;;;;;;;;;;23.27;nan;100467.38;5035477;28;1286;-42
2022/09/26 04:58:45;;;;;;;;;;;;;;;23.27;nan;100469.19;5035951;28;1973;-38
2022/09/26 05:01:16;;;;;;;;;;;;;;;23.27;nan;100470.03;5040661;28;1557;-41
2022/09/26 05:03:44;;;;;;;;;;;;;;;23.27;nan;100469.19;5048154;28;1109;-42
2022/09/26 05:06:11;;;;;;;;;;;;;;;23.27;nan;100467.38;5048156;28;1280;-42
2022/09/26 05:08:45;;;;;;;;;;;;;;;23.27;nan;100464.72;5054499;28;921;-42
2022/09/26 05:11:12;;;;;;;;;;;;;;;23.28;nan;100470.88;5035107;28;1371;-41
2022/09/26 05:13:39;;;;;;;;;;;;;;;23.27;nan;100478.00;5035496;28;1262;-42
2022/09/26 05:16:07;;;;;;;;;;;;;;;23.27;nan;100475.34;5035048;28;1282;-42
2022/09/26 05:18:34;;;;;;;;;;;;;;;23.27;nan;100474.50;5035528;28;1977;-42
2022/09/26 05:21:02;;;;;;;;;;;;;;;23.25;nan;100471.97;5042927;28;1216;-42
2022/09/26 05:26:22;;;;;;;;;;;;;;;23.23;nan;100476.56;5054794;28;1264;-42
2022/09/26 05:28:50;;;;;;;;;;;;;;;23.22;nan;100466.06;5055042;28;937;-43
2022/09/26 05:31:18;;;;;;;;;;;;;;;23.22;nan;100474.84;5054724;28;1271;-42
2022/09/26 05:33:45;;;;;;;;;;;;;;;23.21;nan;100467.03;5054603;28;1097;-42
2022/09/26 05:36:12;;;;;;;;;;;;;;;23.22;nan;100464.22;5054423;28;1296;-42
2022/09/26 05:38:39;;;;;;;;;;;;;;;23.22;nan;100464.22;5055122;28;1906;-41
2022/09/26 05:41:05;;;;;;;;;;;;;;;23.22;nan;100464.22;5054623;28;1319;-43
2022/09/26 05:43:32;;;;;;;;;;;;;;;23.21;nan;100454.59;5042526;28;1130;-42
2022/09/26 05:46:00;;;;;;;;;;;;;;;23.20;nan;100458.19;5034615;28;1212;-38
2022/09/26 05:48:31;;;;;;;;;;;;;;;23.20;nan;100455.53;5035047;28;1232;-41
2022/09/26 05:51:11;;;;;;;;;;;;;;;23.22;nan;100458.91;5034643;28;1505;-41
2022/09/26 05:53:38;;;;;;;;;;;;;;;23.24;nan;100459.66;5035104;28;1284;-41
2022/09/26 05:56:06;;;;;;;;;;;;;;;23.22;nan;100464.22;5034264;28;1285;-41
2022/09/26 05:58:34;;;;;;;;;;;;;;;23.23;nan;100462.41;5034403;28;1961;-41
2022/09/26 06:01:01;;;;;;;;;;;;;;;23.22;nan;100469.53;5034610;28;1298;-40
2022/09/26 06:03:33;;;;;;;;;;;;;;;23.22;nan;100471.38;5035239;28;1174;-37
2022/09/26 06:06:07;;;;;;;;;;;;;;;23.22;nan;100464.22;5050009;28;1303;-39
2022/09/26 06:08:35;;;;;;;;;;;;;;;23.22;nan;100469.53;5054289;28;1248;-40
2022/09/26 06:11:03;;;;;;;;;;;;;;;23.24;nan;100472.09;5053295;28;1308;-40
2022/09/26 06:13:30;;;;;;;;;;;;;;;23.23;nan;100463.28;5053745;28;1140;-41
2022/09/26 06:15:59;;;;;;;;;;;;;;;23.23;nan;100473.06;5039668;28;1601;-41
2022/09/26 06:18:26;;;;;;;;;;;;;;;23.22;nan;100469.53;5052914;28;1906;-41
2022/09/26 06:20:53;;;;;;;;;;;;;;;23.24;nan;100472.09;5051747;28;1231;-41
2022/09/26 06:23:20;;;;;;;;;;;;;;;23.23;nan;100483.69;5052873;28;1009;-39
2022/09/26 06:25:46;;;;;;;;;;;;;;;23.22;nan;100482.81;5052946;28;1505;-40
2022/09/26 06:28:13;;;;;;;;;;;;;;;23.22;nan;100485.47;5052784;28;1217;-42
2022/09/26 06:30:40;;;;;;;;;;;;;;;23.22;nan;100490.81;5051367;28;1232;-41
2022/09/26 06:33:06;;;;;;;;;;;;;;;23.22;nan;100496.13;5052763;28;1031;-41
2022/09/26 06:35:33;;;;;;;;;;;;;;;23.21;nan;100505.06;5050425;28;1466;-42
2022/09/26 06:38:00;;;;;;;;;;;;;;;23.21;nan;100501.56;5041529;28;1038;-41
2022/09/26 06:40:27;;;;;;;;;;;;;;;23.17;nan;100508.94;5052562;28;1910;-43
2022/09/26 06:42:54;;;;;;;;;;;;;;;23.16;nan;100507.22;5051516;28;1153;-40
2022/09/26 06:45:21;;;;;;;;;;;;;;;;;;5052092;28;1343;-40
2022/09/26 06:47:48;;;;;;;;;;;;;;;23.15;nan;100507.38;5052422;28;1119;-42
2022/09/26 06:50:15;;;;;;;;;;;;;;;23.15;nan;100516.19;5051824;28;1389;-36
2022/09/26 06:52:43;;;;;;;;;;;;;;;23.13;nan;100512.78;5052429;28;974;-41
2022/09/26 06:55:09;;;;;;;;;;;;;;;23.15;nan;100521.50;5052134;28;1272;-41
2022/09/26 06:57:38;;;;;;;;;;;;;;;23.14;nan;100525.13;5052155;28;1531;-38
2022/09/26 07:00:07;;;;;;;;;;;;;;;23.15;nan;100531.28;5050809;28;1992;-41
2022/09/26 07:02:34;;;;;;;;;;;;;;;23.15;nan;100525.97;5052384;28;1243;-41
2022/09/26 07:05:01;;;;;;;;;;;;;;;23.14;nan;100533.09;5051914;28;1367;-38
2022/09/26 07:07:29;;;;;;;;;;;;;;;23.15;nan;100531.28;5052189;28;1135;-40
2022/09/26 07:09:56;;;;;;;;;;;;;;;23.14;nan;100534.91;5051275;28;1351;-41
2022/09/26 07:12:23;;;;;;;;;;;;;;;23.15;nan;100537.44;5052203;28;898;-38
2022/09/26 07:14:50;;;;;;;;;;;;;;;23.17;nan;100539.97;5049427;28;1367;-37
2022/09/26 07:17:19;;;;;;;;;;;;;;;23.18;nan;100536.34;5050408;28;1387;-41
2022/09/26 07:19:49;;;;;;;;;;;;;;;23.19;nan;100541.53;5045721;28;1946;-36
2022/09/26 07:22:16;;;;;;;;;;;;;;;23.20;nan;100545.88;5049700;28;1805;-40
2022/09/26 07:24:45;;;;;;;;;;;;;;;23.21;nan;100550.25;5043397;28;1385;-39
2022/09/26 07:27:11;;;;;;;;;;;;;;;23.23;nan;100550.97;5048413;28;1328;-39
2022/09/26 07:29:38;;;;;;;;;;;;;;;23.24;nan;100547.34;5047652;28;1306;-40
2022/09/26 07:32:05;;;;;;;;;;;;;;;23.25;nan;100549.06;5044998;28;1221;-39
2022/09/26 07:34:32;;;;;;;;;;;;;;;23.25;nan;100553.50;5056516;28;1107;-39
2022/09/26 07:36:58;;;;;;;;;;;;;;;23.25;nan;100556.16;5052508;28;1648;-38
2022/09/26 07:39:25;;;;;;;;;;;;;;;23.25;nan;100558.84;5049184;28;1979;-38
2022/09/26 07:41:52;;;;;;;;;;;;;;;23.25;nan;100570.31;5056608;28;1232;-37
2022/09/26 07:44:19;;;;;;;;;;;;;;;23.25;nan;100567.66;5056078;28;1047;-36
2022/09/26 07:52:36;;;;;;;;;;;;;;;23.19;nan;100575.25;5048085;28;1596;-42
2022/09/26 07:55:03;;;;;;;;;;;;;;;23.22;nan;100575.00;5050945;28;1355;-32
2022/09/26 07:57:33;;;;;;;;;;;;;;;23.25;nan;100580.09;5051302;28;1247;-35
2022/09/26 08:00:11;;;;;;;;;;;;;;;23.26;nan;100579.09;5056559;28;1914;-36
2022/09/26 08:02:41;;;;;;;;;;;;;;;23.26;nan;100577.28;5051854;28;1514;-38
2022/09/26 08:05:09;;;;;;;;;;;;;;;23.27;nan;100584.31;5053516;28;1229;-38
2022/09/26 08:07:35;;;;;;;;;;;;;;;23.28;nan;100588.66;5056550;28;1038;-38
2022/09/26 08:10:06;;;;;;;;;;;;;;;23.30;nan;100591.19;5053878;28;1268;-40
2022/09/26 08:12:37;;;;;;;;;;;;;;;23.30;nan;100593.84;5053211;28;1150;-36
2022/09/26 08:15:05;;;;;;;;;;;;;;;23.30;nan;100599.16;5053836;28;1328;-35
2022/09/26 08:17:32;;;;;;;;;;;;;;;23.34;nan;100598.81;5053653;28;1023;-32
2022/09/26 08:19:59;;;;;;;;;;;;;;;23.34;nan;100608.59;5053464;28;1914;-38
2022/09/26 08:22:26;;;;;;;;;;;;;;;23.34;nan;100598.81;5054158;28;1037;-40
2022/09/26 08:24:53;;;;;;;;;;;;;;;23.37;nan;100598.59;5046251;28;1375;-38
2022/09/26 08:27:21;;;;;;;;;;;;;;;23.37;nan;100601.25;5055670;28;1051;-38
2022/09/26 08:29:49;;;;;;;;;;;;;;;23.36;nan;100599.53;5046163;28;1446;-32
2022/09/26 08:32:17;;;;;;;;;;;;;;;23.36;nan;100594.22;5054341;28;1101;-33
2022/09/26 08:34:43;;;;;;;;;;;;;;;23.37;nan;100598.59;5046103;28;1264;-34
2022/09/26 08:37:10;;;;;;;;;;;;;;;23.36;nan;100599.53;5040712;28;1062;-36
2022/09/26 08:39:38;;;;;;;;;;;;;;;23.38;nan;100594.09;5048398;28;1906;-34
2022/09/26 08:42:08;;;;;;;;;;;;;;;23.38;nan;100600.25;5055571;28;1201;-37
2022/09/26 08:44:35;;;;;;;;;;;;;;;23.39;nan;100599.31;5050031;28;1296;-32
2022/09/26 08:47:05;;;;;;;;;;;;;;;23.40;nan;100597.53;5046710;28;1327;-37
2022/09/26 08:49:51;;;;;;;;;;;;;;;23.42;nan;100597.38;5055154;28;1000;-33
2022/09/26 08:52:36;;;;;;;;;;;;;;;23.39;nan;100594.00;5055385;28;1108;-32
2022/09/26 08:55:24;;;;;;;;;;;;;;;23.44;nan;100595.47;5054470;28;1359;-37
2022/09/26 08:58:02;;;;;;;;;;;;;;;23.44;nan;100590.97;5055258;28;1130;-37
2022/09/26 09:00:31;;;;;;;;;;;;;;;23.44;nan;100598.13;5038740;28;1974;-36
2022/09/26 09:03:16;;;;;;;;;;;;;;;23.45;nan;100591.81;5044058;28;1513;-33
2022/09/26 09:05:47;;;;;;;;;;;;;;;23.46;nan;100590.88;5043725;28;1304;-36
2022/09/26 09:08:20;;;;;;;;;;;;;;;23.51;nan;100596.66;5038165;28;1370;-35
2022/09/26 09:11:02;;;;;;;;;;;;;;;23.52;nan;100587.72;5045843;28;1363;-33
2022/09/26 09:13:39;;;;;;;;;;;;;;;23.46;nan;100590.88;5053601;28;1170;-31
2022/09/26 09:16:14;;;;;;;;;;;;;;;23.48;nan;100592.44;5054442;28;1284;-35
2022/09/26 09:18:53;;;;;;;;;;;;;;;23.46;nan;100593.53;5054872;28;1169;-42
2022/09/26 09:21:44;;;;;;;;;;;;;;;23.46;nan;100589.06;5052021;28;1981;-35
2022/09/26 09:24:14;;;;;;;;;;;;;;;23.46;nan;100582.91;5032850;28;887;-41
2022/09/26 09:26:56;;;;;;;;;;;;;;;23.46;nan;100593.53;5031665;28;1305;-41
2022/09/26 09:30:01;;;;;;;;;;;;;;;23.47;nan;100589.91;5033083;28;2000;-42
2022/09/26 09:32:40;;;;;;;;;;;;;;;23.48;nan;100587.13;5032969;28;1018;-41
2022/09/26 09:35:15;;;;;;;;;;;;;;;23.43;nan;100588.47;5032304;28;1362;-42
2022/09/26 09:37:49;;;;;;;;;;;;;;;23.43;nan;100591.97;5033217;28;934;-42
2022/09/26 09:40:37;;;;;;;;;;;;;;;23.42;nan;100584.94;5033970;28;1973;-42
2022/09/26 09:43:13;;;;;;;;;;;;;;;23.43;nan;100585.81;5034352;28;1005;-42
2022/09/26 09:45:43;;;;;;;;;;;;;;;23.42;nan;100589.41;5034167;28;1274;-41
2022/09/26 09:48:11;;;;;;;;;;;;;;;23.43;nan;100594.63;5034539;28;1138;-41
2022/09/26 09:50:41;;;;;;;;;;;;;;;23.42;nan;100592.91;5033747;28;1410;-40
2022/09/26 09:53:08;;;;;;;;;;;;;;;23.41;nan;100596.53;5034364;28;1141;-41
2022/09/26 09:55:46;;;;;;;;;;;;;;;23.37;nan;100595.06;5051236;28;1446;-41
2022/09/26 09:58:31;;;;;;;;;;;;;;;23.37;nan;100595.06;5054671;28;1073;-41
2022/09/26 10:01:07;;;;;;;;;;;;;;;23.38;nan;100591.44;5053661;28;1914;-42
2022/09/26 10:03:40;;;;;;;;;;;;;;;23.38;nan;100591.44;5048052;28;1719;-41
2022/09/26 10:06:11;;;;;;;;;;;;;;;23.36;nan;100585.41;5046619;28;1338;-42
2022/09/26 10:09:03;;;;;;;;;;;;;;;23.33;nan;100583.84;5035153;28;2288;-42
2022/09/26 10:11:51;;;;;;;;;;;;;;;23.37;nan;100587.94;5053843;28;2236;-42
2022/09/26 10:14:27;;;;;;;;;;;;;;;23.37;nan;100584.44;5053272;28;893;-37
2022/09/26 10:17:09;;;;;;;;;;;;;;;23.37;nan;100577.31;5053663;28;1284;-38
2022/09/26 10:19:37;;;;;;;;;;;;;;;23.38;nan;100578.13;5053615;28;1911;-41
2022/09/26 10:22:16;;;;;;;;;;;;;;;23.39;nan;100575.41;5052515;28;1228;-40
2022/09/26 10:24:44;;;;;;;;;;;;;;;23.43;nan;100575.16;5053047;28;1007;-35
2022/09/26 10:27:20;;;;;;;;;;;;;;;23.44;nan;100571.56;5053664;28;1039;-39
2022/09/26 10:29:58;;;;;;;;;;;;;;;23.42;nan;100574.31;5053360;28;1393;-38
2022/09/26 10:32:28;;;;;;;;;;;;;;;23.44;nan;100566.22;5053395;28;1102;-40
2022/09/26 10:35:04;;;;;;;;;;;;;;;23.43;nan;100564.53;5053105;28;1265;-39
2022/09/26 10:37:31;;;;;;;;;;;;;;;23.46;nan;100564.28;5053768;28;1192;-34
2022/09/26 10:42:46;;;;;;;;;;;;;;;23.45;nan;100566.09;5053282;28;1020;-43
2022/09/26 10:45:14;;;;;;;;;;;;;;;23.46;nan;100567.78;5052924;28;1359;-42
2022/09/26 10:47:45;;;;;;;;;;;;;;;23.47;nan;100558.84;5050758;28;1723;-43
2022/09/26 10:50:17;;;;;;;;;;;;;;;23.49;nan;100554.25;5044028;28;1389;-41
2022/09/26 10:52:55;;;;;;;;;;;;;;;23.47;nan;100545.53;5052748;28;1647;-38
2022/09/26 10:55:24;;;;;;;;;;;;;;;23.49;nan;100543.63;5052081;28;1324;-40
2022/09/26 10:57:52;;;;;;;;;;;;;;;23.50;nan;100544.47;5053433;28;1043;-39
2022/09/26 11:00:38;;;;;;;;;;;;;;;23.50;nan;100547.13;5052680;28;1985;-40
2022/09/26 11:03:10;;;;;;;;;;;;;;;23.51;nan;100544.34;5053281;28;1144;-41
2022/09/26 11:05:56;;;;;;;;;;;;;;;23.47;nan;100542.88;5052681;28;1256;-35
2022/09/26 11:08:24;;;;;;;;;;;;;;;23.50;nan;100539.16;5052865;28;1014;-40
2022/09/26 11:10:52;;;;;;;;;;;;;;;23.50;nan;100542.63;5052606;28;1312;-41
2022/09/26 11:13:21;;;;;;;;;;;;;;;23.51;nan;100528.38;5067980;28;1018;-38
2022/09/26 11:15:51;;;;;;;;;;;;;;;23.48;nan;100528.63;5052495;28;1367;-36
2022/09/26 11:18:21;;;;;;;;;;;;;;;23.50;nan;100537.31;5053033;28;1108;-35
2022/09/26 11:20:53;;;;;;;;;;;;;;;23.49;nan;100532.16;5052762;28;2009;-37
2022/09/26 11:23:21;;;;;;;;;;;;;;;23.48;nan;100535.75;5053049;28;1030;-33
2022/09/26 11:26:06;;;;;;;;;;;;;;;23.50;nan;100531.19;5048185;28;1338;-38
2022/09/26 11:28:40;;;;;;;;;;;;;;;23.54;nan;100530.81;5051698;28;1089;-39
2022/09/26 11:31:14;;;;;;;;;;;;;;;23.54;nan;100538.78;5052290;28;1327;-40
2022/09/26 11:33:43;;;;;;;;;;;;;;;23.56;nan;100531.50;5052911;28;1043;-42
2022/09/26 11:36:13;;;;;;;;;;;;;;;23.56;nan;100525.38;5051723;28;1367;-40
2022/09/26 11:38:45;;;;;;;;;;;;;;;23.56;nan;100534.16;5052235;28;1271;-42
2022/09/26 11:41:12;;;;;;;;;;;;;;;23.58;nan;100526.09;5050361;28;1914;-41
2022/09/26 11:43:56;;;;;;;;;;;;;;;23.59;nan;100527.78;5049524;28;1474;-43
2022/09/26 11:46:33;;;;;;;;;;;;;;;23.58;nan;100528.75;5052050;28;1268;-41
2022/09/26 11:49:16;;;;;;;;;;;;;;;23.57;nan;100521.72;5051502;28;1020;-42
2022/09/26 11:51:54;;;;;;;;;;;;;;;23.57;nan;100511.94;5050433;28;1594;-42
2022/09/26 11:54:59;;;;;;;;;;;;;;;23.58;nan;100529.59;5052127;28;762;-43
2022/09/26 11:57:44;;;;;;;;;;;;;;;23.55;nan;100521.00;5048762;28;1142;-43
2022/09/26 12:00:23;;;;;;;;;;;;;;;23.59;nan;100510.00;5049326;28;2129;-41
2022/09/26 12:02:56;;;;;;;;;;;;;;;23.57;nan;100506.63;5051181;28;1105;-42
2022/09/26 12:05:41;;;;;;;;;;;;;;;23.56;nan;100509.44;5051933;28;1205;-40
2022/09/26 12:08:23;;;;;;;;;;;;;;;23.56;nan;100501.44;5051512;28;1148;-42
2022/09/26 12:11:04;;;;;;;;;;;;;;;23.56;nan;100488.16;5049934;28;1236;-41
2022/09/26 12:13:33;;;;;;;;;;;;;;;23.58;nan;100484.41;5051687;28;1196;-41
2022/09/26 12:16:20;;;;;;;;;;;;;;;23.60;nan;100484.25;5052044;28;1197;-41
2022/09/26 12:19:10;;;;;;;;;;;;;;;23.61;nan;100477.97;5052781;28;2463;-42
2022/09/26 12:22:29;;;;;;;;;;;;;;;23.62;nan;100483.16;5056056;28;1910;-39
2022/09/26 12:25:04;;;;;;;;;;;;;;;23.62;nan;100477.03;5050309;28;1433;-38
2022/09/26 12:27:43;;;;;;;;;;;;;;;23.63;nan;100478.69;5052564;28;1330;-39
2022/09/26 12:30:13;;;;;;;;;;;;;;;23.63;nan;100468.91;5055040;28;1320;-38
2022/09/26 12:32:46;;;;;;;;;;;;;;;23.67;nan;100469.50;5052895;28;1302;-42
2022/09/26 12:35:13;;;;;;;;;;;;;;;23.68;nan;100460.56;5052254;28;1307;-40
2022/09/26 12:37:59;;;;;;;;;;;;;;;23.69;nan;100454.25;5053793;28;1344;-38
2022/09/26 12:40:31;;;;;;;;;;;;;;;23.69;nan;100456.91;5045764;28;1906;-40
2022/09/26 12:43:01;;;;;;;;;;;;;;;23.69;nan;100452.44;5035767;28;1129;-39
2022/09/26 12:45:46;;;;;;;;;;;;;;;23.66;nan;100442.06;5051190;28;1394;-40
2022/09/26 12:48:21;;;;;;;;;;;;;;;23.67;nan;100448.22;5035676;28;1036;-42
2022/09/26 12:50:56;;;;;;;;;;;;;;;23.68;nan;100448.09;5054620;28;1534;-41
2022/09/26 12:53:32;;;;;;;;;;;;;;;23.69;nan;100459.56;5054758;28;1083;-37
2022/09/26 12:56:17;;;;;;;;;;;;;;;23.69;nan;100452.44;5054896;28;1292;-38
2022/09/26 12:58:44;;;;;;;;;;;;;;;23.70;nan;100450.63;5055268;28;1103;-40
2022/09/26 13:01:29;;;;;;;;;;;;;;;23.72;nan;100451.34;5055090;28;1976;-36
2022/09/26 13:03:59;;;;;;;;;;;;;;;23.71;nan;100444.34;5051878;28;1088;-36
2022/09/26 13:06:36;;;;;;;;;;;;;;;23.74;nan;100444.09;5042246;28;1232;-37
2022/09/26 13:09:15;;;;;;;;;;;;;;;23.74;nan;100444.09;5039925;28;1027;-44
2022/09/26 13:11:52;;;;;;;;;;;;;;;23.79;nan;100441.91;5037359;28;1636;-43
2022/09/26 13:14:38;;;;;;;;;;;;;;;23.77;nan;100446.50;5042206;28;890;-38
2022/09/26 13:17:18;;;;;;;;;;;;;;;23.79;nan;100431.25;5054223;28;1295;-39
2022/09/26 13:19:51;;;;;;;;;;;;;;;23.79;nan;100433.91;5045620;28;1396;-38
2022/09/26 13:22:26;;;;;;;;;;;;;;;23.77;nan;100427.91;5034901;28;1918;-38
2022/09/26 13:25:06;;;;;;;;;;;;;;;23.77;nan;100420.72;5036885;28;1348;-35
2022/09/26 13:27:42;;;;;;;;;;;;;;;23.77;nan;100419.91;5035174;28;1047;-39
2022/09/26 13:30:17;;;;;;;;;;;;;;;23.79;nan;100416.16;5041081;28;1308;-39
2022/09/26 13:33:04;;;;;;;;;;;;;;;23.78;nan;100416.25;5047614;28;1431;-40
2022/09/26 13:35:34;;;;;;;;;;;;;;;23.78;nan;100408.28;5045342;28;1264;-36
2022/09/26 13:38:19;;;;;;;;;;;;;;;23.77;nan;100409.28;5035714;28;969;-39
2022/09/26 13:41:21;;;;;;;;;;;;;;;23.78;nan;100408.28;5049698;28;1988;-40
2022/09/26 13:44:08;;;;;;;;;;;;;;;23.78;nan;100406.47;5071142;28;1228;-38
2022/09/26 13:46:56;;;;;;;;;;;;;;;23.79;nan;100404.66;5033491;28;1213;-40
2022/09/26 13:49:29;;;;;;;;;;;;;;;23.79;nan;100409.97;5050418;28;1532;-37